createdAt,value
2022-09-12T00:01:55.443Z,11.80
2022-09-12T00:04:24.803Z,10.97
2022-09-12T00:06:58.841Z,11.13
2022-09-12T00:09:29.608Z,11.13
2022-09-12T00:11:57.916Z,11.47
2022-09-12T00:14:29.293Z,12.20
2022-09-12T00:16:59.539Z,10.80
2022-09-12T00:19:27.874Z,10.53
2022-09-12T00:21:56.583Z,10.50
2022-09-12T00:24:24.963Z,10.97
2022-09-12T00:26:54.749Z,11.13
2022-09-12T00:29:23.573Z,11.90
2022-09-12T00:31:55.044Z,13.53
2022-09-12T00:34:23.676Z,11.97
2022-09-12T00:36:51.868Z,14.07
2022-09-12T00:39:21.189Z,12.67
2022-09-12T00:41:49.278Z,15.57
2022-09-12T00:44:48.087Z,11.77
2022-09-12T00:47:19.464Z,11.87
2022-09-12T00:49:51.303Z,12.73
2022-09-12T00:52:25.628Z,12.00
2022-09-12T00:54:58.221Z,12.37
2022-09-12T00:57:28.636Z,11.80
2022-09-12T01:00:00.261Z,11.20
2022-09-12T01:02:29.173Z,10.83
2022-09-12T01:04:57.477Z,9.03
2022-09-12T01:07:25.932Z,9.70
2022-09-12T01:09:54.778Z,9.97
2022-09-12T01:12:23.212Z,9.43
2022-09-12T01:14:51.797Z,10.13
2022-09-12T01:17:22.025Z,11.53
2022-09-12T01:20:26.587Z,10.50
2022-09-12T01:23:29.587Z,11.07
2022-09-12T01:26:04.384Z,8.67
2022-09-12T01:28:46.439Z,10.37
2022-09-12T01:31:18.419Z,9.47
2022-09-12T01:33:53.609Z,9.60
2022-09-12T01:36:41.101Z,9.97
2022-09-12T01:39:14.323Z,10.57
2022-09-12T01:41:46.438Z,12.10
2022-09-12T01:44:16.660Z,9.43
2022-09-12T01:46:53.207Z,9.03
2022-09-12T01:49:23.916Z,9.40
2022-09-12T01:51:57.359Z,9.63
2022-09-12T01:54:28.279Z,13.00
2022-09-12T01:56:57.699Z,10.43
2022-09-12T01:59:27.761Z,9.50
2022-09-12T02:02:03.200Z,9.93
2022-09-12T02:04:34.372Z,11.17
2022-09-12T02:07:05.894Z,11.07
2022-09-12T02:09:41.171Z,9.80
2022-09-12T02:12:11.254Z,13.43
2022-09-12T02:14:41.799Z,10.77
2022-09-12T02:17:14.508Z,9.20
2022-09-12T02:19:47.848Z,11.23
2022-09-12T02:22:21.978Z,8.93
2022-09-12T02:24:54.183Z,10.30
2022-09-12T02:27:24.153Z,10.27
2022-09-12T02:29:52.540Z,12.47
2022-09-12T02:32:27.066Z,11.20
2022-09-12T02:34:59.065Z,9.03
2022-09-12T02:37:34.070Z,10.47
2022-09-12T02:40:03.933Z,12.73
2022-09-12T02:42:32.142Z,9.80
2022-09-12T02:45:00.943Z,9.83
2022-09-12T02:47:31.543Z,12.07
2022-09-12T02:50:00.230Z,10.43
2022-09-12T02:52:28.652Z,12.90
2022-09-12T02:54:57.882Z,8.67
2022-09-12T02:57:26.895Z,8.33
2022-09-12T02:59:57.123Z,8.73
2022-09-12T03:03:01.174Z,14.50
2022-09-12T03:05:33.251Z,10.13
2022-09-12T03:08:33.118Z,10.60
2022-09-12T03:11:11.700Z,11.57
2022-09-12T03:13:43.256Z,11.03
2022-09-12T03:16:16.385Z,8.93
2022-09-12T03:18:52.235Z,10.33
2022-09-12T03:21:23.557Z,14.97
2022-09-12T03:23:57.389Z,12.57
2022-09-12T03:26:28.686Z,10.17
2022-09-12T03:28:56.922Z,10.10
2022-09-12T03:31:25.544Z,11.53
2022-09-12T03:33:56.730Z,9.90
2022-09-12T03:36:25.993Z,8.87
2022-09-12T03:38:56.864Z,8.73
2022-09-12T03:41:27.904Z,9.07
2022-09-12T03:43:57.121Z,11.03
2022-09-12T03:46:25.221Z,9.90
2022-09-12T03:48:56.448Z,13.53
2022-09-12T03:51:26.061Z,9.47
2022-09-12T03:53:54.155Z,12.20
2022-09-12T03:56:22.662Z,9.43
2022-09-12T03:58:51.134Z,9.03
2022-09-12T04:01:20.844Z,10.93
2022-09-12T04:03:49.849Z,12.87
2022-09-12T04:06:22.534Z,13.37
2022-09-12T04:08:51.662Z,11.73
2022-09-12T04:11:20.427Z,12.40
2022-09-12T04:13:50.587Z,10.33
2022-09-12T04:16:19.216Z,11.90
2022-09-12T04:18:49.445Z,11.57
2022-09-12T04:21:22.583Z,12.87
2022-09-12T04:23:51.462Z,12.83
2022-09-12T04:26:19.967Z,10.37
2022-09-12T04:28:48.590Z,10.70
2022-09-12T04:31:20.793Z,12.67
2022-09-12T04:33:49.370Z,11.77
2022-09-12T04:36:19.597Z,9.80
2022-09-12T04:38:48.162Z,13.63
2022-09-12T04:41:17.292Z,8.77
2022-09-12T04:43:46.580Z,9.87
2022-09-12T04:46:19.894Z,10.07
2022-09-12T04:48:51.353Z,9.20
2022-09-12T04:51:27.940Z,9.00
2022-09-12T04:53:57.955Z,10.90
2022-09-12T04:56:26.677Z,13.17
2022-09-12T04:58:55.259Z,13.60
2022-09-12T05:01:23.468Z,11.87
2022-09-12T05:03:53.630Z,11.33
2022-09-12T05:06:26.049Z,14.53
2022-09-12T05:08:56.092Z,13.90
2022-09-12T05:11:33.008Z,12.17
2022-09-12T05:14:10.555Z,10.80
2022-09-12T05:16:41.332Z,10.30
2022-09-12T05:19:11.428Z,11.00
2022-09-12T05:21:41.323Z,13.57
2022-09-12T05:24:13.542Z,12.93
2022-09-12T05:26:43.332Z,15.37
2022-09-12T05:29:13.284Z,10.17
2022-09-12T05:31:41.646Z,10.03
2022-09-12T05:34:10.219Z,10.20
2022-09-12T05:36:40.761Z,10.53
2022-09-12T05:39:09.047Z,13.80
2022-09-12T05:41:38.439Z,10.07
2022-09-12T05:44:08.253Z,12.20
2022-09-12T05:46:39.095Z,10.97
2022-09-12T05:49:09.985Z,12.27
2022-09-12T05:51:42.520Z,11.10
2022-09-12T05:54:12.288Z,11.77
2022-09-12T05:56:41.526Z,11.67
2022-09-12T05:59:13.217Z,10.70
2022-09-12T06:01:48.915Z,11.13
2022-09-12T06:04:17.156Z,15.93
2022-09-12T06:06:47.045Z,13.00
2022-09-12T06:09:15.557Z,12.87
2022-09-12T06:11:43.768Z,13.73
2022-09-12T06:14:13.013Z,15.00
2022-09-12T06:16:42.860Z,16.53
2022-09-12T06:19:15.558Z,15.70
2022-09-12T06:21:43.853Z,15.87
2022-09-12T06:24:13.361Z,16.33
2022-09-12T06:26:41.436Z,15.07
2022-09-12T06:29:13.762Z,17.83
2022-09-12T06:31:45.891Z,18.90
2022-09-12T06:34:16.130Z,14.53
2022-09-12T06:36:45.198Z,14.77
2022-09-12T06:39:16.570Z,11.17
2022-09-12T06:41:45.210Z,12.43
2022-09-12T06:44:18.496Z,12.47
2022-09-12T06:46:47.656Z,11.87
2022-09-12T06:49:15.929Z,12.70
2022-09-12T06:51:49.854Z,14.53
2022-09-12T06:54:20.238Z,13.13
2022-09-12T06:56:49.000Z,10.70
2022-09-12T06:59:17.699Z,11.07
2022-09-12T07:01:45.897Z,10.30
2022-09-12T07:04:14.096Z,7.93
2022-09-12T07:06:44.671Z,11.63
2022-09-12T07:09:13.675Z,8.17
2022-09-12T07:11:43.648Z,7.40
2022-09-12T07:14:13.170Z,6.83
2022-09-12T07:16:41.414Z,7.47
2022-09-12T07:19:11.153Z,6.97
2022-09-12T07:21:41.015Z,7.53
2022-09-12T07:24:10.873Z,8.00
2022-09-12T07:26:40.142Z,9.10
2022-09-12T07:32:02.543Z,9.50
2022-09-12T07:34:37.089Z,8.43
2022-09-12T07:37:06.318Z,8.63
2022-09-12T07:39:34.847Z,8.20
2022-09-12T07:42:03.743Z,8.23
2022-09-12T07:44:33.292Z,8.90
2022-09-12T07:47:10.727Z,8.47
2022-09-12T07:49:46.609Z,9.23
2022-09-12T07:52:17.547Z,10.17
2022-09-12T07:54:46.061Z,10.23
2022-09-12T07:57:21.398Z,11.40
2022-09-12T07:59:53.344Z,14.10
2022-09-12T08:02:21.752Z,9.80
2022-09-12T08:04:52.927Z,9.67
2022-09-12T08:07:23.524Z,8.33
2022-09-12T08:09:51.608Z,9.50
2022-09-12T08:12:21.720Z,9.90
2022-09-12T08:14:52.067Z,8.70
2022-09-12T08:17:20.263Z,9.00
2022-09-12T08:19:48.654Z,8.63
2022-09-12T08:22:16.830Z,10.13
2022-09-12T08:24:44.859Z,7.87
2022-09-12T08:27:12.957Z,7.13
2022-09-12T08:29:41.000Z,6.67
2022-09-12T08:32:10.928Z,7.23
2022-09-12T08:34:38.955Z,6.03
2022-09-12T08:37:06.915Z,6.67
2022-09-12T08:39:35.407Z,7.23
2022-09-12T08:42:04.331Z,6.07
2022-09-12T08:44:56.753Z,6.03
2022-09-12T08:47:29.045Z,5.90
2022-09-12T08:50:01.909Z,5.03
2022-09-12T08:52:31.485Z,6.10
2022-09-12T08:54:59.803Z,5.50
2022-09-12T08:57:27.840Z,4.87
2022-09-12T08:59:59.503Z,5.03
2022-09-12T09:02:48.636Z,5.97
2022-09-12T09:05:21.371Z,8.33
2022-09-12T09:08:05.741Z,4.97
2022-09-12T09:10:38.316Z,4.47
2022-09-12T09:13:10.620Z,4.30
2022-09-12T09:15:44.766Z,6.20
2022-09-12T09:18:17.856Z,6.53
2022-09-12T09:20:48.176Z,4.13
2022-09-12T09:23:17.779Z,7.10
2022-09-12T09:25:50.246Z,12.33
2022-09-12T09:28:20.504Z,3.63
2022-09-12T09:30:48.794Z,3.83
2022-09-12T09:33:23.551Z,5.90
2022-09-12T09:35:56.978Z,4.60
2022-09-12T09:38:26.747Z,4.47
2022-09-12T09:41:02.863Z,3.83
2022-09-12T09:43:31.308Z,5.57
2022-09-12T09:46:00.505Z,3.70
2022-09-12T09:48:31.324Z,4.57
2022-09-12T09:51:01.903Z,3.30
2022-09-12T09:53:44.095Z,4.03
2022-09-12T09:56:14.002Z,3.67
2022-09-12T09:58:42.652Z,3.87
2022-09-12T10:01:15.455Z,3.97
2022-09-12T10:03:50.100Z,3.77
2022-09-12T10:06:26.801Z,3.60
2022-09-12T10:09:06.654Z,4.70
2022-09-12T10:11:34.916Z,4.23
2022-09-12T10:14:31.760Z,4.17
2022-09-12T10:17:02.973Z,3.63
2022-09-12T10:19:40.316Z,4.37
2022-09-12T10:22:08.481Z,3.47
2022-09-12T10:24:38.237Z,5.27
2022-09-12T10:27:17.157Z,3.33
2022-09-12T10:29:48.550Z,3.40
2022-09-12T10:32:48.904Z,3.13
2022-09-12T10:35:20.758Z,3.37
2022-09-12T10:37:58.388Z,2.50
2022-09-12T10:40:39.006Z,2.97
2022-09-12T10:43:17.858Z,5.63
2022-09-12T10:45:46.712Z,3.07
2022-09-12T10:48:25.871Z,2.70
2022-09-12T10:50:56.870Z,4.53
2022-09-12T10:53:28.977Z,3.73
2022-09-12T10:56:07.397Z,3.10
2022-09-12T10:58:56.750Z,3.17
2022-09-12T11:01:36.804Z,2.90
2022-09-12T11:04:40.023Z,4.13
2022-09-12T11:07:21.084Z,5.00
2022-09-12T11:09:53.268Z,3.00
2022-09-12T11:12:23.374Z,3.40
2022-09-12T11:15:00.364Z,2.90
2022-09-12T11:17:35.302Z,3.83
2022-09-12T11:20:13.941Z,2.87
2022-09-12T11:23:08.161Z,2.20
2022-09-12T11:25:37.494Z,2.83
2022-09-12T11:28:15.507Z,1.90
2022-09-12T11:30:57.361Z,2.73
2022-09-12T11:33:43.044Z,3.27
2022-09-12T11:36:20.274Z,2.80
2022-09-12T11:39:05.275Z,1.70
2022-09-12T11:41:41.287Z,3.33
2022-09-12T11:44:17.340Z,2.00
2022-09-12T11:46:49.907Z,2.30
2022-09-12T11:49:24.244Z,3.53
2022-09-12T11:51:54.860Z,2.27
2022-09-12T11:54:26.229Z,2.10
2022-09-12T11:56:57.604Z,2.03
2022-09-12T11:59:34.182Z,2.53
2022-09-12T12:02:03.861Z,1.87
2022-09-12T12:04:38.513Z,1.63
2022-09-12T12:07:08.118Z,2.90
2022-09-12T12:09:47.610Z,1.70
2022-09-12T12:12:18.850Z,1.73
2022-09-12T12:14:48.437Z,1.97
2022-09-12T12:17:17.645Z,1.63
2022-09-12T12:19:45.747Z,1.30
2022-09-12T12:22:18.608Z,1.80
2022-09-12T12:25:04.373Z,1.47
2022-09-12T12:27:55.660Z,1.60
2022-09-12T12:31:02.000Z,1.77
2022-09-12T12:33:57.180Z,2.07
2022-09-12T12:36:35.115Z,3.47
2022-09-12T12:39:55.613Z,1.77
2022-09-12T12:43:08.628Z,3.20
2022-09-12T12:46:13.591Z,1.70
2022-09-12T12:48:49.736Z,2.10
2022-09-12T12:51:48.608Z,2.00
2022-09-12T12:54:58.914Z,2.90
2022-09-12T12:57:48.038Z,1.80
2022-09-12T13:00:34.330Z,2.70
2022-09-12T13:03:12.878Z,2.20
2022-09-12T13:05:43.919Z,1.73
2022-09-12T13:08:23.917Z,1.90
2022-09-12T13:10:53.545Z,1.97
2022-09-12T13:13:25.947Z,2.30
2022-09-12T13:15:55.671Z,2.23
2022-09-12T13:18:29.562Z,2.17
2022-09-12T13:21:06.666Z,2.23
2022-09-12T13:23:36.595Z,4.17
2022-09-12T13:26:05.145Z,3.73
2022-09-12T13:28:33.572Z,2.07
2022-09-12T13:31:04.383Z,2.93
2022-09-12T13:33:39.376Z,2.03
2022-09-12T13:36:46.806Z,2.13
2022-09-12T13:39:35.432Z,2.30
2022-09-12T13:42:28.888Z,2.03
2022-09-12T13:44:58.906Z,2.50
2022-09-12T13:47:31.010Z,2.53
2022-09-12T13:50:50.196Z,2.43
2022-09-12T13:53:21.540Z,4.10
2022-09-12T13:55:56.713Z,2.47
2022-09-12T13:58:25.484Z,2.10
2022-09-12T14:01:07.564Z,1.80
2022-09-12T14:03:59.062Z,2.13
2022-09-12T14:06:31.275Z,2.00
2022-09-12T14:09:02.251Z,3.77
2022-09-12T14:11:34.650Z,2.77
2022-09-12T14:14:04.186Z,2.03
2022-09-12T14:16:32.460Z,2.20
2022-09-12T14:19:01.348Z,1.93
2022-09-12T14:21:35.413Z,3.13
2022-09-12T14:24:04.909Z,3.87
2022-09-12T14:26:37.085Z,2.97
2022-09-12T14:29:06.689Z,2.27
2022-09-12T14:31:36.102Z,2.00
2022-09-12T14:34:14.087Z,3.17
2022-09-12T14:36:48.107Z,2.30
2022-09-12T14:39:23.087Z,2.37
2022-09-12T14:41:53.623Z,2.97
2022-09-12T14:44:23.843Z,3.93
2022-09-12T14:46:52.211Z,2.60
2022-09-12T14:49:22.868Z,2.50
2022-09-12T14:51:56.570Z,2.33
2022-09-12T14:54:51.593Z,2.73
2022-09-12T14:57:39.747Z,2.77
2022-09-12T15:00:21.088Z,2.20
2022-09-12T15:03:21.302Z,3.53
2022-09-12T15:06:54.689Z,2.20
2022-09-12T15:09:28.900Z,2.80
2022-09-12T15:11:57.672Z,2.40
2022-09-12T15:14:53.741Z,3.27
2022-09-12T15:17:24.246Z,3.17
2022-09-12T15:19:53.410Z,3.50
2022-09-12T15:22:21.839Z,2.83
2022-09-12T15:24:50.486Z,4.53
2022-09-12T15:27:21.024Z,2.30
2022-09-12T15:29:56.513Z,2.23
2022-09-12T15:32:25.050Z,2.20
2022-09-12T15:34:55.728Z,2.40
2022-09-12T15:37:24.631Z,4.30
2022-09-12T15:39:53.499Z,10.13
2022-09-12T15:42:26.989Z,2.43
2022-09-12T15:45:02.515Z,3.53
2022-09-12T15:47:31.677Z,1.90
2022-09-12T15:49:59.763Z,2.63
2022-09-12T15:52:28.701Z,3.73
2022-09-12T15:54:59.295Z,2.33
2022-09-12T15:57:29.769Z,5.03
2022-09-12T15:59:59.770Z,5.47
2022-09-12T16:02:28.205Z,5.73
2022-09-12T16:04:56.319Z,2.30
2022-09-12T16:07:24.654Z,3.43
2022-09-12T16:09:52.865Z,4.30
2022-09-12T16:12:22.458Z,3.97
2022-09-12T16:14:51.604Z,2.73
2022-09-12T16:17:23.314Z,2.40
2022-09-12T16:19:51.918Z,3.60
2022-09-12T16:22:20.073Z,2.53
2022-09-12T16:24:48.185Z,3.00
2022-09-12T16:27:18.819Z,2.40
2022-09-12T16:29:47.139Z,3.43
2022-09-12T16:32:16.292Z,4.13
2022-09-12T16:34:50.817Z,3.70
2022-09-12T16:37:19.044Z,4.30
2022-09-12T16:39:49.167Z,2.80
2022-09-12T16:42:19.415Z,4.00
2022-09-12T16:44:47.848Z,2.70
2022-09-12T16:47:17.730Z,5.33
2022-09-12T16:49:56.473Z,3.30
2022-09-12T16:52:26.073Z,3.47
2022-09-12T16:54:57.360Z,3.27
2022-09-12T16:57:26.628Z,2.80
2022-09-12T17:01:00.902Z,2.87
2022-09-12T17:03:29.337Z,2.83
2022-09-12T17:06:50.082Z,3.33
2022-09-12T17:09:20.145Z,3.13
2022-09-12T17:11:49.718Z,2.60
2022-09-12T17:14:18.894Z,2.97
2022-09-12T17:16:52.013Z,3.00
2022-09-12T17:19:22.610Z,2.70
2022-09-12T17:21:54.628Z,3.13
2022-09-12T17:27:08.694Z,3.93
2022-09-12T17:29:50.959Z,4.53
2022-09-12T17:32:34.295Z,3.37
2022-09-12T17:35:04.568Z,2.83
2022-09-12T17:37:36.493Z,3.17
2022-09-12T17:40:07.333Z,2.90
2022-09-12T17:42:36.180Z,4.67
2022-09-12T17:45:04.498Z,2.90
2022-09-12T17:47:34.715Z,2.90
2022-09-12T17:50:29.981Z,3.37
2022-09-12T17:52:53.109Z,5.07
2022-09-12T17:55:22.926Z,4.17
2022-09-12T17:57:54.401Z,2.93
2022-09-12T18:00:43.254Z,4.00
2022-09-12T18:03:10.812Z,3.17
2022-09-12T18:05:48.180Z,3.53
2022-09-12T18:08:17.598Z,2.97
2022-09-12T18:10:49.925Z,8.33
2022-09-12T18:13:18.408Z,3.17
2022-09-12T18:15:47.912Z,2.80
2022-09-12T18:18:16.457Z,4.20
2022-09-12T18:20:52.111Z,3.17
2022-09-12T18:23:20.452Z,3.00
2022-09-12T18:25:50.480Z,3.10
2022-09-12T18:28:19.587Z,5.00
2022-09-12T18:30:47.840Z,2.63
2022-09-12T18:33:22.019Z,4.33
2022-09-12T18:35:52.404Z,3.07
2022-09-12T18:38:20.750Z,3.67
2022-09-12T18:40:50.620Z,5.40
2022-09-12T18:43:19.509Z,5.07
2022-09-12T18:45:48.956Z,3.30
2022-09-12T18:48:17.512Z,4.33
2022-09-12T18:50:46.104Z,4.67
2022-09-12T18:53:15.143Z,8.73
2022-09-12T18:55:43.631Z,3.30
2022-09-12T18:58:13.294Z,4.27
2022-09-12T19:00:41.689Z,3.10
2022-09-12T19:03:10.057Z,3.60
2022-09-12T19:05:38.394Z,3.17
2022-09-12T19:08:07.847Z,2.70
2022-09-12T19:10:39.473Z,3.33
2022-09-12T19:13:08.277Z,4.63
2022-09-12T19:15:43.003Z,4.03
2022-09-12T19:18:13.657Z,3.20
2022-09-12T19:20:42.011Z,5.43
2022-09-12T19:23:10.854Z,5.53
2022-09-12T19:25:40.837Z,3.97
2022-09-12T19:28:09.752Z,3.60
2022-09-12T19:30:44.320Z,4.13
2022-09-12T19:33:13.109Z,4.60
2022-09-12T19:35:41.665Z,7.57
2022-09-12T19:38:11.083Z,7.77
2022-09-12T19:40:39.840Z,10.60
2022-09-12T19:43:08.195Z,9.57
2022-09-12T19:45:36.788Z,7.10
2022-09-12T19:48:07.404Z,16.87
2022-09-12T19:50:35.911Z,9.10
2022-09-12T19:53:05.119Z,6.97
2022-09-12T19:55:33.593Z,6.40
2022-09-12T19:58:02.091Z,5.90
2022-09-12T20:00:31.250Z,5.37
2022-09-12T20:03:04.546Z,8.27
2022-09-12T20:05:34.598Z,5.30
2022-09-12T20:08:03.304Z,10.20
2022-09-12T20:10:31.394Z,5.63
2022-09-12T20:12:59.541Z,6.80
2022-09-12T20:15:28.170Z,4.90
2022-09-12T20:17:57.025Z,5.33
2022-09-12T20:20:26.781Z,4.33
2022-09-12T20:22:56.725Z,4.30
2022-09-12T20:25:24.825Z,5.13
2022-09-12T20:27:55.928Z,6.30
2022-09-12T20:30:28.535Z,4.47
2022-09-12T20:32:58.634Z,6.57
2022-09-12T20:35:27.037Z,7.70
2022-09-12T20:37:56.532Z,7.93
2022-09-12T20:40:25.364Z,5.10
2022-09-12T20:42:53.472Z,3.97
2022-09-12T20:45:22.556Z,4.27
2022-09-12T20:47:52.205Z,3.67
2022-09-12T20:50:23.139Z,4.60
2022-09-12T20:52:52.732Z,3.73
2022-09-12T20:55:23.091Z,4.17
2022-09-12T20:57:51.625Z,4.50
2022-09-12T21:00:20.501Z,3.50
2022-09-12T21:02:50.758Z,5.20
2022-09-12T21:05:19.658Z,3.67
2022-09-12T21:07:48.201Z,5.13
2022-09-12T21:10:19.125Z,5.20
2022-09-12T21:12:49.679Z,4.00
2022-09-12T21:15:17.897Z,5.07
2022-09-12T21:17:46.621Z,3.83
2022-09-12T21:20:15.354Z,4.50
2022-09-12T21:22:45.051Z,3.40
2022-09-12T21:25:14.825Z,7.50
2022-09-12T21:27:44.234Z,3.73
2022-09-12T21:30:16.007Z,3.37
2022-09-12T21:32:47.375Z,5.77
2022-09-12T21:35:16.089Z,4.50
2022-09-12T21:37:46.948Z,4.63
2022-09-12T21:40:17.381Z,3.83
2022-09-12T21:42:49.058Z,5.57
2022-09-12T21:45:19.117Z,3.37
2022-09-12T21:47:47.894Z,3.50
2022-09-12T21:50:16.211Z,3.60
2022-09-12T21:52:45.720Z,5.13
2022-09-12T21:55:17.127Z,5.47
2022-09-12T21:57:45.498Z,4.23
2022-09-12T22:00:15.811Z,3.50
2022-09-12T22:02:47.102Z,4.07
2022-09-12T22:05:15.753Z,4.07
2022-09-12T22:07:45.384Z,6.00
2022-09-12T22:10:15.495Z,3.80
2022-09-12T22:12:46.131Z,5.03
2022-09-12T22:15:39.617Z,5.80
2022-09-12T22:18:07.842Z,4.27
2022-09-12T22:20:38.887Z,3.77
2022-09-12T22:23:28.056Z,4.23
2022-09-12T22:25:56.732Z,4.73
2022-09-12T22:28:27.263Z,3.93
2022-09-12T22:30:57.537Z,4.10
2022-09-12T22:33:28.027Z,3.73
2022-09-12T22:35:57.408Z,6.07
2022-09-12T22:38:26.551Z,5.20
2022-09-12T22:40:56.735Z,4.57
2022-09-12T22:43:27.018Z,4.67
2022-09-12T22:45:57.627Z,4.07
2022-09-12T22:48:31.477Z,3.90
2022-09-12T22:51:00.167Z,6.90
2022-09-12T22:53:30.286Z,4.17
2022-09-12T22:56:05.345Z,3.73
2022-09-12T22:58:37.386Z,3.87
2022-09-12T23:01:08.401Z,4.00
2022-09-12T23:03:38.285Z,3.97
2022-09-12T23:06:07.327Z,4.20
2022-09-12T23:08:37.007Z,4.30
2022-09-12T23:11:06.990Z,5.80
2022-09-12T23:13:35.874Z,5.97
2022-09-12T23:16:06.484Z,4.77
2022-09-12T23:18:37.874Z,4.57
2022-09-12T23:21:09.342Z,4.57
2022-09-12T23:23:38.813Z,8.80
2022-09-12T23:26:08.990Z,4.63
2022-09-12T23:28:37.833Z,6.00
2022-09-12T23:31:07.182Z,3.90
2022-09-12T23:33:36.654Z,10.73
2022-09-12T23:36:11.115Z,6.83
2022-09-12T23:38:40.806Z,7.70
2022-09-12T23:41:09.778Z,5.87
2022-09-12T23:43:39.474Z,4.27
2022-09-12T23:46:08.209Z,5.40
2022-09-12T23:48:36.744Z,3.97
2022-09-12T23:51:04.981Z,4.47
2022-09-12T23:53:33.133Z,6.90
2022-09-12T23:56:03.992Z,4.70
2022-09-12T23:58:32.333Z,5.40
